Time;durP1;ratioP1;P1;durP2;ratioP2;P2;SDS_P1;SDS_P2;PMS_P1;PMS_P2;Temp;Humidity;BMP_temperature;BMP_pressure;BME280_temperature;BME280_humidity;BME280_pressure;Samples;Min_cycle;Max_cycle;Signal;HPM_P1;HPM_P2
2022/05/28 00:01:22;;;;;;;16.23;2.50;;;;;;;17.88;nan;101157.53;5036399;28;20496;-85
2022/05/28 00:03:53;;;;;;;11.87;2.93;;;;;;;17.82;nan;101169.50;5035996;28;20489;-84
2022/05/28 00:06:22;;;;;;;12.40;2.57;;;;;;;17.76;nan;101180.63;5053818;28;20536;-84
2022/05/28 00:08:49;;;;;;;15.93;2.80;;;;;;;17.74;nan;101175.31;5052925;28;20455;-84
2022/05/28 00:11:22;;;;;;;17.73;2.20;;;;;;;17.76;nan;101164.88;5036001;28;20457;-84
2022/05/28 00:13:50;;;;;;;17.90;2.47;;;;;;;17.72;nan;101162.81;5069121;28;20442;-84
2022/05/28 00:16:17;;;;;;;9.13;1.73;;;;;;;17.68;nan;101156.06;5052558;28;20465;-84
2022/05/28 00:18:45;;;;;;;8.70;1.87;;;;;;;17.62;nan;101152.28;5036218;28;20511;-84
2022/05/28 00:21:14;;;;;;;12.73;2.80;;;;;;;17.57;nan;101135.53;5052503;28;20454;-84
2022/05/28 00:23:44;;;;;;;17.77;2.20;;;;;;;17.62;nan;101143.97;5035980;28;20544;-84
2022/05/28 00:26:12;;;;;;;12.07;2.10;;;;;;;17.60;nan;101154.41;5052716;28;20442;-84
2022/05/28 00:28:40;;;;;;;11.90;2.20;;;;;;;17.57;nan;101144.66;5052516;28;20465;-84
2022/05/28 00:31:08;;;;;;;10.67;1.80;;;;;;;17.57;nan;101138.28;5035899;28;20454;-84
2022/05/28 00:33:36;;;;;;;8.87;2.50;;;;;;;17.58;nan;101143.59;5050408;28;21003;-84
2022/05/28 00:36:04;;;;;;;9.23;1.87;;;;;;;17.61;nan;101143.13;5035745;28;20497;-83
2022/05/28 00:38:32;;;;;;;16.80;3.27;;;;;;;17.59;nan;101136.13;5035719;28;20463;-84
2022/05/28 00:41:00;;;;;;;11.27;2.43;;;;;;;17.55;nan;101137.66;5035923;28;20818;-84
2022/05/28 00:43:30;;;;;;;12.40;2.50;;;;;;;17.46;nan;101137.16;5035492;28;20501;-84
2022/05/28 00:46:07;;;;;;;9.77;2.43;;;;;;;17.44;nan;101138.44;5052238;28;20442;-84
2022/05/28 00:48:40;;;;;;;8.13;1.83;;;;;;;17.40;nan;101131.69;5069271;28;20446;-84
2022/05/28 00:51:29;;;;;;;9.53;2.30;;;;;;;17.35;nan;101129.59;5052003;28;20531;-84
2022/05/28 00:54:01;;;;;;;12.40;2.27;;;;;;;17.29;nan;101135.22;5052289;28;20453;-84
2022/05/28 00:56:28;;;;;;;11.23;2.00;;;;;;;17.10;nan;101102.03;5052144;28;20450;-84
2022/05/28 00:58:56;;;;;;;15.17;2.17;;;;;;;17.04;nan;101100.19;5051801;28;20447;-84
2022/05/28 01:01:25;;;;;;;6.17;2.17;;;;;;;17.12;nan;101119.25;5019266;28;20435;-84
2022/05/28 01:04:03;;;;;;;18.47;2.30;;;;;;;17.07;nan;101113.53;5051756;28;20849;-84
2022/05/28 01:06:35;;;;;;;13.77;2.40;;;;;;;16.86;nan;101125.84;5051943;28;20933;-84
2022/05/28 01:09:24;;;;;;;7.70;2.30;;;;;;;16.79;nan;101115.91;5052012;28;20446;-84
2022/05/28 01:12:19;;;;;;;10.63;1.90;;;;;;;16.73;nan;101125.13;5051806;28;20508;-84
2022/05/28 01:14:49;;;;;;;16.53;2.47;;;;;;;16.67;nan;101120.50;5051724;28;20450;-84
2022/05/28 01:17:35;;;;;;;11.33;2.47;;;;;;;16.64;nan;101120.94;5051169;28;20446;-84
2022/05/28 01:20:17;;;;;;;9.57;1.90;;;;;;;16.56;nan;101114.56;5051651;28;20936;-84
2022/05/28 01:23:03;;;;;;;8.60;2.60;;;;;;;16.46;nan;101108.72;5051584;28;20477;-84
2022/05/28 01:25:39;;;;;;;10.50;2.20;;;;;;;16.49;nan;101108.28;5052877;28;20458;-84
2022/05/28 01:28:09;;;;;;;11.40;2.47;;;;;;;16.43;nan;101095.38;5052887;28;20936;-84
2022/05/28 01:30:39;;;;;;;11.93;1.90;;;;;;;16.38;nan;101089.69;5035354;28;20959;-84
2022/05/28 01:33:07;;;;;;;8.80;1.70;;;;;;;16.42;nan;101101.13;5051683;28;20454;-84
2022/05/28 01:35:34;;;;;;;17.53;2.50;;;;;;;16.32;nan;101087.84;5035219;28;20457;-84
2022/05/28 01:38:02;;;;;;;7.77;2.20;;;;;;;16.33;nan;101091.44;5018633;28;20860;-85
2022/05/28 01:40:29;;;;;;;8.60;1.77;;;;;;;16.31;nan;101088.91;5035037;28;20434;-84
2022/05/28 01:42:57;;;;;;;12.73;2.50;;;;;;;16.30;nan;101089.13;5018630;28;20489;-84
2022/05/28 01:45:27;;;;;;;8.00;2.17;;;;;;;16.23;nan;101087.25;5051454;28;20828;-84
2022/05/28 01:47:55;;;;;;;7.70;1.83;;;;;;;16.17;nan;101081.75;5051674;28;20507;-84
2022/05/28 01:50:23;;;;;;;12.07;1.97;;;;;;;16.12;nan;101076.09;5035128;28;20455;-84
2022/05/28 01:52:50;;;;;;;7.63;1.80;;;;;;;16.04;nan;101070.81;5051359;28;20484;-85
2022/05/28 01:55:18;;;;;;;9.50;2.07;;;;;;;16.08;nan;101072.06;5035329;28;20457;-84
2022/05/28 01:57:45;;;;;;;8.33;2.03;;;;;;;16.03;nan;101077.41;5035084;28;20442;-84
2022/05/28 02:00:13;;;;;;;5.03;2.27;;;;;;;15.97;nan;101064.53;5034991;28;20842;-84
2022/05/28 02:02:41;;;;;;;11.30;2.53;;;;;;;15.86;nan;101053.13;5034836;28;20989;-84
2022/05/28 02:05:09;;;;;;;15.30;2.50;;;;;;;15.77;nan;101043.44;5051320;28;20450;-84
2022/05/28 02:07:37;;;;;;;12.27;2.53;;;;;;;15.84;nan;101035.09;5034948;28;20461;-84
2022/05/28 02:10:07;;;;;;;9.53;2.30;;;;;;;15.89;nan;101047.16;5051241;28;20453;-84
2022/05/28 02:12:58;;;;;;;12.93;2.20;;;;;;;15.87;nan;101046.53;5051168;28;20507;-84
2022/05/28 02:15:41;;;;;;;8.23;1.93;;;;;;;15.87;nan;101041.03;5051123;28;20454;-84
2022/05/28 02:18:30;;;;;;;20.20;2.63;;;;;;;15.92;nan;101043.13;5051019;28;20465;-84
2022/05/28 02:21:02;;;;;;;16.83;1.93;;;;;;;16.00;nan;101053.03;5052280;28;20525;-84
2022/05/28 02:23:34;;;;;;;7.70;2.00;;;;;;;16.05;nan;101029.25;5051937;28;20996;-84
2022/05/28 02:26:13;;;;;;;9.50;1.90;;;;;;;16.10;nan;101031.34;5051303;28;20854;-84
2022/05/28 02:28:42;;;;;;;5.90;1.90;;;;;;;16.19;nan;101029.97;5054655;28;20536;-84
2022/05/28 02:31:15;;;;;;;11.20;3.80;;;;;;;16.22;nan;101013.84;5054742;28;20442;-84
2022/05/28 02:33:43;;;;;;;10.50;2.60;;;;;;;16.34;nan;101027.78;5052805;28;20454;-83
2022/05/28 02:36:12;;;;;;;13.87;2.17;;;;;;;16.46;nan;101030.63;5071227;28;20461;-83
2022/05/28 02:38:40;;;;;;;9.37;2.10;;;;;;;16.45;nan;101016.00;5054285;28;20473;-83
2022/05/28 02:41:07;;;;;;;5.70;2.20;;;;;;;16.65;nan;101032.41;5071293;28;20446;-83
2022/05/28 02:43:36;;;;;;;9.80;1.93;;;;;;;16.76;nan;101030.78;5054440;28;20500;-83
2022/05/28 02:46:04;;;;;;;12.33;3.10;;;;;;;16.77;nan;101004.88;5021932;28;20453;-83
2022/05/28 02:48:32;;;;;;;10.47;2.50;;;;;;;16.76;nan;101009.56;5021555;28;20451;-83
2022/05/28 02:51:07;;;;;;;17.53;2.80;;;;;;;16.80;nan;101001.66;5054412;28;20451;-83
2022/05/28 02:53:35;;;;;;;11.50;2.37;;;;;;;16.80;nan;100993.38;5054260;28;20476;-83
2022/05/28 02:56:02;;;;;;;9.90;2.00;;;;;;;16.90;nan;100993.72;5037817;28;20454;-83
2022/05/28 02:58:31;;;;;;;13.13;2.43;;;;;;;16.97;nan;100988.94;5037714;28;20438;-83
2022/05/28 03:00:58;;;;;;;19.87;3.13;;;;;;;16.99;nan;100992.31;5054154;28;20454;-83
2022/05/28 03:03:26;;;;;;;9.70;2.50;;;;;;;17.02;nan;100991.88;5037718;28;20493;-83
2022/05/28 03:05:53;;;;;;;10.63;2.50;;;;;;;17.04;nan;100984.19;5037652;28;20451;-83
2022/05/28 03:08:21;;;;;;;12.03;2.57;;;;;;;17.17;nan;100988.72;5054064;28;20451;-84
2022/05/28 03:10:48;;;;;;;11.57;2.57;;;;;;;17.27;nan;100989.88;5037726;28;20473;-83
2022/05/28 03:13:16;;;;;;;10.90;3.77;;;;;;;17.38;nan;100979.09;5037534;28;20797;-83
2022/05/28 03:15:44;;;;;;;13.73;3.20;;;;;;;17.44;nan;100972.63;5053905;28;20459;-84
2022/05/28 03:18:13;;;;;;;13.03;2.80;;;;;;;17.55;nan;100978.19;5055136;28;20945;-82
2022/05/28 03:20:42;;;;;;;13.37;3.40;;;;;;;17.65;nan;100980.44;5037526;28;20997;-83
2022/05/28 03:23:10;;;;;;;10.60;2.57;;;;;;;17.59;nan;100964.75;5054845;28;20470;-82
2022/05/28 03:25:38;;;;;;;13.43;2.80;;;;;;;17.70;nan;100972.31;5037263;28;20447;-83
2022/05/28 03:28:05;;;;;;;18.80;3.17;;;;;;;17.77;nan;100967.50;5053650;28;20442;-83
2022/05/28 03:30:33;;;;;;;15.90;3.70;;;;;;;17.82;nan;100967.66;5053669;28;20454;-83
2022/05/28 03:33:00;;;;;;;24.00;3.90;;;;;;;17.91;nan;100970.91;5037206;28;20435;-83
2022/05/28 03:35:28;;;;;;;12.80;2.80;;;;;;;17.90;nan;100966.44;5053513;28;20928;-82
2022/05/28 03:37:55;;;;;;;21.73;4.20;;;;;;;18.02;nan;100966.50;5037085;28;20451;-83
2022/05/28 03:40:23;;;;;;;15.53;3.43;;;;;;;18.01;nan;100964.81;5052592;28;20467;-83
2022/05/28 03:42:50;;;;;;;34.47;5.73;;;;;;;18.10;nan;100971.66;5020445;28;20496;-83
2022/05/28 03:45:18;;;;;;;33.33;6.63;;;;;;;18.18;nan;100963.03;5053293;28;20450;-83
2022/05/28 03:47:45;;;;;;;31.60;6.00;;;;;;;18.27;nan;100967.13;5020674;28;20458;-83
2022/05/28 03:50:13;;;;;;;33.30;6.83;;;;;;;18.35;nan;100975.06;5036895;28;20805;-83
2022/05/28 03:52:41;;;;;;;30.67;6.17;;;;;;;18.41;nan;100976.88;5036574;28;20458;-83
2022/05/28 03:55:08;;;;;;;36.53;7.10;;;;;;;18.46;nan;100977.03;5036659;28;20850;-83
2022/05/28 03:57:36;;;;;;;32.07;7.50;;;;;;;18.50;nan;100975.44;5053062;28;20842;-82
2022/05/28 04:00:05;;;;;;;34.67;6.63;;;;;;;18.54;nan;100979.41;5053091;28;20453;-83
2022/05/28 04:02:32;;;;;;;32.80;6.40;;;;;;;18.59;nan;100981.50;5052923;28;20451;-83
2022/05/28 04:05:00;;;;;;;37.90;7.57;;;;;;;18.65;nan;100979.69;5036498;28;20502;-83
2022/05/28 04:07:27;;;;;;;36.00;9.03;;;;;;;18.69;nan;100976.19;5036573;28;20481;-83
2022/05/28 04:09:55;;;;;;;28.40;7.87;;;;;;;18.63;nan;100955.84;5036459;28;20949;-83
2022/05/28 04:12:22;;;;;;;19.83;7.07;;;;;;;18.78;nan;100977.50;5036379;28;20458;-83
2022/05/28 04:14:50;;;;;;;33.70;8.00;;;;;;;18.81;nan;100970.66;5036248;28;20861;-83
2022/05/28 04:17:18;;;;;;;28.30;8.57;;;;;;;18.75;nan;100957.75;5069136;28;20924;-83
2022/05/28 04:19:45;;;;;;;25.03;7.80;;;;;;;18.79;nan;100958.97;5052623;28;20457;-83
2022/05/28 04:22:13;;;;;;;24.83;7.30;;;;;;;18.90;nan;100972.78;5052564;28;20454;-83
2022/05/28 04:24:40;;;;;;;36.87;6.67;;;;;;;18.91;nan;100965.31;5036088;28;20852;-83
2022/05/28 04:27:08;;;;;;;33.73;6.43;;;;;;;18.95;nan;100970.13;5036115;28;20456;-83
2022/05/28 04:29:35;;;;;;;26.17;6.13;;;;;;;18.95;nan;100964.59;5052450;28;20862;-83
2022/05/28 04:32:03;;;;;;;17.40;5.50;;;;;;;19.00;nan;100974.97;5052446;28;20454;-83
2022/05/28 04:34:32;;;;;;;32.50;6.37;;;;;;;18.95;nan;100964.59;5050653;28;20450;-83
2022/05/28 04:37:00;;;;;;;18.57;5.67;;;;;;;19.02;nan;100975.56;5052457;28;20446;-84
2022/05/28 04:39:28;;;;;;;24.10;4.90;;;;;;;18.96;nan;100971.81;5052046;28;20470;-83
2022/05/28 04:41:55;;;;;;;25.43;6.07;;;;;;;18.89;nan;100973.03;5035786;28;20528;-83
2022/05/28 04:44:23;;;;;;;25.17;5.43;;;;;;;18.89;nan;100975.81;5035723;28;20984;-83
2022/05/28 04:46:50;;;;;;;23.53;4.20;;;;;;;18.91;nan;100985.56;5052277;28;20446;-83
2022/05/28 04:49:18;;;;;;;21.10;4.50;;;;;;;18.85;nan;100974.63;5052123;28;20458;-83
2022/05/28 04:51:45;;;;;;;25.17;4.23;;;;;;;18.91;nan;100984.72;5052188;28;20944;-83
2022/05/28 04:54:13;;;;;;;27.30;4.47;;;;;;;18.88;nan;100979.66;5052138;28;20458;-83
2022/05/28 04:56:40;;;;;;;27.17;4.03;;;;;;;18.91;nan;100993.03;5051884;28;20453;-83
2022/05/28 04:59:08;;;;;;;18.80;4.40;;;;;;;18.90;nan;100988.56;5019322;28;20454;-83
2022/05/28 05:01:36;;;;;;;18.77;4.23;;;;;;;18.88;nan;100996.28;5019456;28;20488;-83
2022/05/28 05:04:05;;;;;;;14.90;4.00;;;;;;;18.92;nan;100998.31;5052050;28;20481;-83
2022/05/28 05:06:33;;;;;;;20.63;4.77;;;;;;;18.96;nan;100998.69;5084950;28;20522;-84
2022/05/28 05:09:00;;;;;;;18.20;5.10;;;;;;;18.90;nan;100983.88;5035536;28;20465;-83
2022/05/28 05:11:28;;;;;;;27.83;4.83;;;;;;;19.00;nan;100991.59;5035497;28;20458;-83
2022/05/28 05:13:55;;;;;;;18.97;4.70;;;;;;;19.03;nan;100996.63;5035414;28;20453;-83
2022/05/28 05:16:23;;;;;;;16.70;3.97;;;;;;;19.06;nan;101009.97;5035407;28;20458;-84
2022/05/28 05:18:50;;;;;;;14.33;4.40;;;;;;;19.07;nan;101000.59;5035602;28;20454;-84
2022/05/28 05:21:18;;;;;;;21.73;4.20;;;;;;;19.08;nan;101007.81;5051650;28;20455;-83
2022/05/28 05:23:45;;;;;;;27.03;4.30;;;;;;;19.10;nan;101005.63;5018859;28;20543;-83
2022/05/28 05:26:15;;;;;;;18.00;4.33;;;;;;;19.09;nan;100995.63;5035394;28;20438;-84
2022/05/28 05:28:44;;;;;;;16.93;4.83;;;;;;;19.11;nan;100996.25;5051728;28;20438;-83
2022/05/28 05:31:12;;;;;;;16.87;4.40;;;;;;;19.14;nan;100993.00;5035251;28;20851;-83
2022/05/28 05:33:40;;;;;;;23.03;6.23;;;;;;;19.21;nan;100996.47;5019045;28;20884;-84
2022/05/28 05:36:08;;;;;;;21.10;5.17;;;;;;;19.13;nan;100988.53;5035193;28;20451;-83
2022/05/28 05:38:35;;;;;;;13.53;5.50;;;;;;;19.25;nan;101005.13;5068036;28;20466;-83
2022/05/28 05:41:03;;;;;;;19.77;6.30;;;;;;;19.22;nan;101009.25;5051615;28;20450;-84
2022/05/28 05:43:30;;;;;;;19.07;5.83;;;;;;;19.23;nan;101010.94;5035236;28;20484;-84
2022/05/28 05:45:59;;;;;;;17.83;6.00;;;;;;;19.30;nan;101011.63;5035184;28;20477;-85
2022/05/28 05:48:27;;;;;;;13.33;5.67;;;;;;;19.32;nan;101017.75;5051566;28;20462;-85
2022/05/28 05:50:55;;;;;;;22.07;6.80;;;;;;;19.33;nan;101010.28;5051540;28;20459;-85
2022/05/28 05:53:22;;;;;;;17.70;6.30;;;;;;;19.37;nan;101011.50;5034948;28;20454;-85
2022/05/28 05:55:50;;;;;;;12.67;5.70;;;;;;;19.38;nan;101012.34;5051293;28;20507;-85
2022/05/28 05:58:18;;;;;;;17.37;6.20;;;;;;;19.42;nan;101013.53;5051182;28;20891;-85
2022/05/28 06:00:46;;;;;;;19.53;6.70;;;;;;;19.43;nan;101018.84;5051312;28;20941;-85
2022/05/28 06:03:17;;;;;;;22.70;6.73;;;;;;;19.44;nan;101011.34;5054107;28;20462;-85
2022/05/28 06:05:45;;;;;;;14.77;5.80;;;;;;;19.48;nan;101024.47;5055050;28;20551;-85
2022/05/28 06:08:15;;;;;;;20.70;5.50;;;;;;;19.50;nan;101029.81;5055261;28;20854;-85
2022/05/28 06:10:45;;;;;;;24.13;6.47;;;;;;;19.48;nan;101035.56;5055087;28;20450;-85
2022/05/28 06:13:13;;;;;;;23.70;6.07;;;;;;;19.52;nan;101038.72;5039080;28;20507;-85
2022/05/28 06:15:40;;;;;;;18.97;5.93;;;;;;;19.45;nan;101024.09;5054993;28;20495;-85
2022/05/28 06:18:08;;;;;;;26.47;6.17;;;;;;;19.52;nan;101047.03;5088258;28;20454;-85
2022/05/28 06:20:35;;;;;;;22.23;6.43;;;;;;;19.52;nan;101039.56;5071756;28;20777;-85
2022/05/28 06:23:03;;;;;;;23.90;6.47;;;;;;;19.57;nan;101048.00;5054976;28;20446;-85
2022/05/28 06:25:31;;;;;;;11.53;6.30;;;;;;;19.56;nan;101040.75;5038358;28;20988;-84
2022/05/28 06:27:58;;;;;;;17.20;6.17;;;;;;;19.59;nan;101042.19;5038373;28;20508;-85
2022/05/28 06:30:26;;;;;;;13.10;5.90;;;;;;;19.60;nan;101049.44;5054648;28;20455;-84
2022/05/28 06:32:53;;;;;;;12.77;5.40;;;;;;;19.60;nan;101049.44;5054493;28;20796;-85
2022/05/28 06:35:22;;;;;;;18.33;6.70;;;;;;;19.63;nan;101054.47;5032632;28;21013;-85
2022/05/28 06:37:50;;;;;;;15.60;6.27;;;;;;;19.62;nan;101047.25;5055989;28;20457;-85
2022/05/28 06:40:17;;;;;;;16.67;5.87;;;;;;;19.65;nan;101053.13;5070991;28;20520;-85
2022/05/28 06:42:46;;;;;;;23.03;6.57;;;;;;;19.67;nan;101056.50;5070989;28;20803;-85
2022/05/28 06:45:14;;;;;;;22.57;6.70;;;;;;;19.69;nan;101064.56;5070699;28;20836;-85
2022/05/28 06:47:43;;;;;;;23.30;6.80;;;;;;;19.69;nan;101063.75;5070893;28;20461;-85
2022/05/28 06:52:57;;;;;;;21.63;6.90;;;;;;;19.67;nan;101066.75;5068135;28;20531;-85
2022/05/28 06:55:25;;;;;;;32.83;6.10;;;;;;;19.69;nan;101069.28;5054099;28;20463;-85
2022/05/28 06:57:52;;;;;;;23.40;5.87;;;;;;;19.67;nan;101066.75;5070647;28;20459;-86
2022/05/28 07:00:20;;;;;;;18.23;6.40;;;;;;;19.71;nan;101067.09;5054115;28;20458;-85
2022/05/28 07:02:47;;;;;;;18.63;6.00;;;;;;;19.73;nan;101063.00;5054218;28;20515;-85
2022/05/28 07:05:15;;;;;;;12.40;5.43;;;;;;;19.75;nan;101052.50;5053885;28;20486;-85
2022/05/28 07:07:43;;;;;;;36.33;7.00;;;;;;;19.82;nan;101060.69;5070029;28;20512;-85
2022/05/28 07:10:10;;;;;;;26.90;5.20;;;;;;;19.87;nan;101061.63;5070446;28;20999;-86
2022/05/28 07:12:38;;;;;;;20.90;6.50;;;;;;;19.94;nan;101067.88;5070130;28;20462;-85
2022/05/28 07:15:06;;;;;;;20.47;6.60;;;;;;;19.99;nan;101070.75;5053006;28;20507;-85
2022/05/28 07:17:34;;;;;;;12.47;4.50;;;;;;;20.07;nan;101074.19;5070307;28;20442;-85
2022/05/28 07:20:01;;;;;;;10.37;4.33;;;;;;;20.11;nan;101073.47;5053783;28;20512;-86
2022/05/28 07:22:29;;;;;;;14.30;4.87;;;;;;;20.15;nan;101068.25;5053775;28;20461;-85
2022/05/28 07:24:57;;;;;;;12.63;4.93;;;;;;;20.14;nan;101066.56;5053342;28;20490;-85
2022/05/28 07:27:25;;;;;;;16.47;4.97;;;;;;;20.21;nan;101078.34;5053369;28;20454;-85
2022/05/28 07:29:55;;;;;;;17.90;4.73;;;;;;;20.27;nan;101077.34;5070065;28;20447;-85
2022/05/28 07:32:25;;;;;;;13.43;4.63;;;;;;;20.29;nan;101075.16;5069927;28;20924;-85
2022/05/28 07:34:52;;;;;;;19.93;5.40;;;;;;;20.37;nan;101083.13;5069393;28;20960;-85
2022/05/28 07:37:20;;;;;;;18.73;5.03;;;;;;;20.41;nan;101081.53;5053269;28;20848;-85
2022/05/28 07:39:47;;;;;;;11.80;4.07;;;;;;;20.49;nan;101081.13;5052975;28;20828;-85
2022/05/28 07:42:15;;;;;;;20.70;5.10;;;;;;;20.48;nan;101078.59;5070116;28;20917;-85
2022/05/28 07:44:42;;;;;;;20.47;5.13;;;;;;;20.58;nan;101096.28;5069816;28;20509;-85
2022/05/28 07:47:10;;;;;;;14.30;4.90;;;;;;;20.62;nan;101086.34;5069765;28;20442;-86
2022/05/28 07:49:38;;;;;;;16.03;5.90;;;;;;;20.74;nan;101102.09;5086363;28;20449;-85
2022/05/28 07:52:06;;;;;;;16.17;4.60;;;;;;;20.77;nan;101104.38;5053209;28;20941;-85
2022/05/28 07:54:34;;;;;;;13.30;4.03;;;;;;;20.82;nan;101105.28;5069485;28;20451;-85
2022/05/28 07:57:01;;;;;;;11.43;4.00;;;;;;;20.86;nan;101100.06;5053126;28;20458;-85
2022/05/28 07:59:29;;;;;;;10.70;4.17;;;;;;;20.87;nan;101098.97;5053009;28;20442;-86
2022/05/28 08:01:57;;;;;;;14.00;4.97;;;;;;;20.80;nan;101099.13;5069351;28;20443;-85
2022/05/28 08:04:25;;;;;;;22.60;5.57;;;;;;;20.79;nan;101099.38;5069287;28;20984;-85
2022/05/28 08:06:52;;;;;;;12.53;4.23;;;;;;;20.78;nan;101087.47;5052839;28;20462;-86
2022/05/28 08:09:20;;;;;;;11.80;3.90;;;;;;;20.87;nan;101085.06;5069436;28;20447;-85
2022/05/28 08:11:47;;;;;;;13.97;4.20;;;;;;;20.91;nan;101089.03;5069162;28;20815;-84
2022/05/28 08:14:15;;;;;;;14.13;4.10;;;;;;;20.98;nan;101092.47;5069030;28;20477;-84
2022/05/28 08:16:42;;;;;;;13.50;3.47;;;;;;;21.00;nan;101093.06;5052663;28;20451;-84
2022/05/28 08:19:10;;;;;;;9.40;3.10;;;;;;;21.07;nan;101093.72;5052636;28;20492;-84
2022/05/28 08:24:24;;;;;;;12.50;3.80;;;;;;;21.25;nan;101089.84;5066209;28;20827;-84
2022/05/28 08:26:51;;;;;;;22.33;4.83;;;;;;;21.41;nan;101094.53;5068998;28;20503;-84
2022/05/28 08:29:22;;;;;;;15.83;4.07;;;;;;;21.51;nan;101096.63;5085827;28;20451;-84
2022/05/28 08:31:49;;;;;;;14.77;4.07;;;;;;;21.58;nan;101100.88;5068533;28;20450;-84
2022/05/28 08:34:17;;;;;;;14.27;3.93;;;;;;;21.64;nan;101099.84;5052532;28;20451;-84
2022/05/28 08:36:45;;;;;;;14.20;4.07;;;;;;;21.70;nan;101092.44;5083815;28;20458;-84
2022/05/28 08:39:14;;;;;;;13.43;3.50;;;;;;;21.76;nan;101096.94;5052172;28;20822;-84
2022/05/28 08:41:52;;;;;;;15.17;3.77;;;;;;;21.82;nan;101087.56;5035959;28;20496;-84
2022/05/28 08:44:24;;;;;;;11.23;3.70;;;;;;;21.99;nan;101096.66;5084654;28;20458;-84
2022/05/28 08:46:54;;;;;;;15.23;4.23;;;;;;;22.13;nan;101097.13;5068743;28;21602;-82
2022/05/28 08:49:27;;;;;;;14.40;3.83;;;;;;;22.14;nan;101095.16;5068463;28;20512;-82
2022/05/28 08:51:56;;;;;;;14.90;4.07;;;;;;;22.19;nan;101086.88;5068361;28;20462;-82
2022/05/28 08:54:42;;;;;;;15.90;3.87;;;;;;;22.34;nan;101104.59;5085075;28;20450;-81
2022/05/28 08:57:18;;;;;;;18.63;4.47;;;;;;;22.46;nan;101101.66;5051850;28;20451;-81
2022/05/28 08:59:58;;;;;;;12.67;3.73;;;;;;;22.50;nan;101083.31;5068203;28;20449;-82
2022/05/28 09:02:51;;;;;;;15.07;3.60;;;;;;;22.62;nan;101094.25;5068156;28;20451;-82
2022/05/28 09:05:33;;;;;;;18.13;3.83;;;;;;;22.74;nan;101100.50;5067887;28;20489;-82
2022/05/28 09:08:03;;;;;;;23.93;3.70;;;;;;;22.82;nan;101097.25;5051254;28;20469;-83
2022/05/28 09:10:41;;;;;;;13.83;3.67;;;;;;;22.92;nan;101094.53;5068086;28;20541;-82
2022/05/28 09:13:21;;;;;;;12.13;3.40;;;;;;;23.01;nan;101108.84;5067958;28;20457;-82
2022/05/28 09:15:52;;;;;;;18.60;4.47;;;;;;;23.06;nan;101094.94;5084869;28;20507;-83
2022/05/28 09:18:19;;;;;;;17.13;3.57;;;;;;;23.16;nan;101095.00;5068207;28;20469;-83
2022/05/28 09:20:48;;;;;;;18.40;4.20;;;;;;;23.25;nan;101098.97;5068513;28;20457;-83
2022/05/28 09:23:16;;;;;;;25.67;4.70;;;;;;;23.32;nan;101104.28;5068175;28;20450;-83
2022/05/28 09:25:46;;;;;;;28.17;5.23;;;;;;;23.39;nan;101104.91;5068142;28;20493;-83
2022/05/28 09:28:27;;;;;;;17.70;4.83;;;;;;;23.49;nan;101106.91;5051720;28;20952;-83
2022/05/28 09:31:03;;;;;;;15.73;3.60;;;;;;;23.62;nan;101118.47;5066962;28;20457;-84
2022/05/28 09:34:03;;;;;;;17.63;3.50;;;;;;;23.54;nan;101118.13;5051865;28;20457;-83
2022/05/28 09:36:46;;;;;;;17.00;3.77;;;;;;;23.46;nan;101107.47;5052192;28;20804;-83
2022/05/28 09:39:41;;;;;;;12.93;3.70;;;;;;;23.62;nan;101106.47;5054448;28;20488;-83
2022/05/28 09:42:13;;;;;;;16.00;3.67;;;;;;;23.73;nan;101122.13;5055557;28;20442;-83
2022/05/28 09:44:57;;;;;;;15.63;3.57;;;;;;;23.77;nan;101109.31;5088080;28;20480;-83
2022/05/28 09:47:24;;;;;;;8.90;2.30;;;;;;;23.82;nan;101109.34;5070368;28;20446;-83
2022/05/28 09:49:56;;;;;;;14.70;3.70;;;;;;;23.89;nan;101109.06;5072145;28;20446;-82
2022/05/28 09:52:31;;;;;;;14.43;2.83;;;;;;;24.03;nan;101121.44;5071092;28;20445;-83
2022/05/28 09:55:32;;;;;;;18.63;3.63;;;;;;;24.26;nan;101118.16;5055887;28;20954;-83
2022/05/28 09:58:03;;;;;;;24.47;3.80;;;;;;;24.38;nan;101117.91;5021424;28;20461;-83
2022/05/28 10:00:31;;;;;;;16.77;3.33;;;;;;;24.43;nan;101131.91;5037095;28;20854;-83
2022/05/28 10:05:52;;;;;;;15.00;4.27;;;;;;;24.46;nan;101120.16;5053441;28;20485;-83
2022/05/28 10:08:21;;;;;;;10.07;2.93;;;;;;;24.61;nan;101123.00;5037637;28;20454;-83
2022/05/28 10:10:53;;;;;;;23.57;3.17;;;;;;;24.83;nan;101130.25;5053868;28;20473;-83
2022/05/28 10:13:24;;;;;;;20.57;4.73;;;;;;;24.99;nan;101134.78;5037603;28;20446;-83
2022/05/28 10:15:52;;;;;;;28.00;3.80;;;;;;;25.13;nan;101127.47;5038114;28;20446;-83
2022/05/28 10:18:34;;;;;;;12.90;2.70;;;;;;;25.05;nan;101128.03;5054198;28;20453;-83
2022/05/28 10:21:12;;;;;;;10.80;3.10;;;;;;;24.90;nan;101119.63;5038601;28;20449;-83
2022/05/28 10:23:42;;;;;;;10.20;2.87;;;;;;;24.83;nan;101096.69;5054001;28;20829;-83
2022/05/28 10:26:20;;;;;;;13.60;3.13;;;;;;;25.01;nan;101122.19;5053838;28;21027;-83
2022/05/28 10:28:52;;;;;;;15.97;3.27;;;;;;;25.19;nan;101115.16;5038745;28;20509;-83
2022/05/28 10:31:25;;;;;;;22.73;4.00;;;;;;;25.40;nan;101121.56;5037560;28;20531;-81
2022/05/28 10:33:54;;;;;;;14.47;3.00;;;;;;;25.58;nan;101128.53;5060270;28;21425;-86
2022/05/28 10:36:31;;;;;;;14.63;3.13;;;;;;;25.70;nan;101112.25;5031507;28;20478;-86
2022/05/28 10:39:13;;;;;;;15.30;3.47;;;;;;;25.79;nan;101128.16;5027477;28;20464;-84
2022/05/28 10:41:43;;;;;;;19.60;3.80;;;;;;;25.92;nan;101126.75;5066454;28;20802;-84
2022/05/28 10:44:15;;;;;;;20.60;3.97;;;;;;;26.03;nan;101122.75;5048455;28;20968;-83
2022/05/28 10:46:49;;;;;;;16.10;3.03;;;;;;;26.10;nan;101114.88;5051435;28;20490;-84
2022/05/28 10:49:39;;;;;;;13.67;3.20;;;;;;;26.21;nan;101117.59;5068176;28;20510;-82
2022/05/28 10:52:23;;;;;;;17.50;3.83;;;;;;;26.17;nan;101126.59;5057666;28;20443;-83
2022/05/28 10:55:26;;;;;;;14.63;3.30;;;;;;;26.10;nan;101114.03;5037316;28;21020;-82
2022/05/28 10:58:00;;;;;;;21.27;4.90;;;;;;;26.15;nan;101120.47;5041840;28;21026;-83
2022/05/28 11:01:00;;;;;;;15.00;3.10;;;;;;;26.27;nan;101122.91;5065377;28;20878;-83
2022/05/28 11:03:47;;;;;;;11.60;3.30;;;;;;;26.47;nan;101119.16;5063810;28;20442;-82
2022/05/28 11:06:17;;;;;;;14.00;3.40;;;;;;;26.64;nan;101115.97;5065392;28;20534;-83
2022/05/28 11:08:56;;;;;;;15.07;4.00;;;;;;;26.77;nan;101104.91;5054947;28;20451;-83
2022/05/28 11:11:36;;;;;;;13.63;3.20;;;;;;;26.98;nan;101110.38;5062936;28;20438;-82
2022/05/28 11:14:14;;;;;;;12.60;2.83;;;;;;;27.12;nan;101117.00;5065075;28;20965;-82
2022/05/28 11:16:51;;;;;;;18.73;3.13;;;;;;;27.22;nan;101110.44;5052906;28;20454;-83
2022/05/28 11:19:37;;;;;;;14.93;3.10;;;;;;;27.28;nan;101103.63;5063495;28;20443;-83
2022/05/28 11:22:19;;;;;;;14.47;3.10;;;;;;;27.24;nan;101103.38;5063223;28;20453;-82
2022/05/28 11:24:58;;;;;;;16.83;3.63;;;;;;;27.17;nan;101114.13;5053843;28;20454;-83
2022/05/28 11:27:57;;;;;;;13.97;2.93;;;;;;;27.16;nan;101112.44;5041423;28;20453;-82
2022/05/28 11:30:40;;;;;;;13.50;3.40;;;;;;;27.21;nan;101109.59;5068636;28;20464;-82
2022/05/28 11:33:13;;;;;;;19.00;3.50;;;;;;;27.33;nan;101107.19;5024610;28;20862;-83
2022/05/28 11:36:06;;;;;;;17.23;3.60;;;;;;;27.41;nan;101106.56;5059125;28;20438;-83
2022/05/28 11:38:48;;;;;;;10.90;2.83;;;;;;;27.50;nan;101104.78;5048559;28;20470;-82
2022/05/28 11:41:32;;;;;;;12.90;3.13;;;;;;;27.51;nan;101106.47;5046261;28;20454;-83
2022/05/28 11:44:10;;;;;;;15.13;3.43;;;;;;;27.56;nan;101101.91;5065766;28;20438;-83
2022/05/28 11:47:20;;;;;;;12.40;2.57;;;;;;;27.65;nan;101098.19;5037570;28;20516;-83
2022/05/28 11:52:56;;;;;;;12.63;3.23;;;;;;;27.80;nan;101089.56;5053319;28;20539;-84
2022/05/28 11:55:26;;;;;;;8.93;2.70;;;;;;;27.85;nan;101089.50;5053207;28;20492;-85
2022/05/28 11:58:18;;;;;;;16.90;3.70;;;;;;;27.92;nan;101085.47;5069403;28;20450;-84
2022/05/28 12:00:51;;;;;;;12.63;3.90;;;;;;;28.01;nan;101089.28;5052358;28;20451;-84
2022/05/28 12:03:26;;;;;;;16.40;3.43;;;;;;;28.10;nan;101093.91;5069162;28;20450;-82
2022/05/28 12:06:06;;;;;;;10.20;2.63;;;;;;;28.24;nan;101090.41;5069217;28;20482;-84